sensor_id;sensor_type;location;lat;lon;timestamp;pressure;altitude;pressure_sealevel;temperature;humidity
30819;BME280;17546;42.674;23.284;2023-07-29T00:00:47;94588.97;;;28.53;31.31
30819;BME280;17546;42.674;23.284;2023-07-29T00:03:13;94619.41;;;28.62;31.47
30819;BME280;17546;42.674;23.284;2023-07-29T00:05:39;94588.69;;;28.37;31.77
30819;BME280;17546;42.674;23.284;2023-07-29T00:08:05;94589.19;;;28.34;31.68
30819;BME280;17546;42.674;23.284;2023-07-29T00:10:36;94614.19;;;28.47;32.10
30819;BME280;17546;42.674;23.284;2023-07-29T00:13:03;94617.81;;;28.48;31.96
30819;BME280;17546;42.674;23.284;2023-07-29T00:15:29;94619.41;;;28.51;32.14
30819;BME280;17546;42.674;23.284;2023-07-29T00:17:54;94609.13;;;28.34;32.00
30819;BME280;17546;42.674;23.284;2023-07-29T00:20:19;94615.44;;;28.44;31.90
30819;BME280;17546;42.674;23.284;2023-07-29T00:22:45;94613.84;;;28.29;31.92
30819;BME280;17546;42.674;23.284;2023-07-29T00:25:10;94611.59;;;28.28;31.95
30819;BME280;17546;42.674;23.284;2023-07-29T00:27:36;94611.97;;;28.22;31.53
30819;BME280;17546;42.674;23.284;2023-07-29T00:30:01;94593.66;;;27.90;31.83
30819;BME280;17546;42.674;23.284;2023-07-29T00:32:29;94611.97;;;28.10;32.16
30819;BME280;17546;42.674;23.284;2023-07-29T00:34:56;94587.78;;;27.64;32.58
30819;BME280;17546;42.674;23.284;2023-07-29T00:37:21;94602.41;;;27.82;32.58
30819;BME280;17546;42.674;23.284;2023-07-29T00:39:46;94582.47;;;27.70;32.73
30819;BME280;17546;42.674;23.284;2023-07-29T00:42:12;94601.94;;;27.86;32.56
30819;BME280;17546;42.674;23.284;2023-07-29T00:44:38;94595.34;;;27.71;33.11
30819;BME280;17546;42.674;23.284;2023-07-29T00:47:04;94608.22;;;27.84;32.85
30819;BME280;17546;42.674;23.284;2023-07-29T00:49:31;94604.19;;;27.87;33.02
30819;BME280;17546;42.674;23.284;2023-07-29T00:51:56;94570.84;;;27.66;32.70
30819;BME280;17546;42.674;23.284;2023-07-29T00:54:22;94605.53;;;27.86;33.08
30819;BME280;17546;42.674;23.284;2023-07-29T00:56:49;94592.41;;;27.81;33.06
30819;BME280;17546;42.674;23.284;2023-07-29T00:59:15;94602.91;;;27.78;32.92
30819;BME280;17546;42.674;23.284;2023-07-29T01:01:40;94589.91;;;27.75;33.28
30819;BME280;17546;42.674;23.284;2023-07-29T01:04:06;94601.06;;;27.83;32.92
30819;BME280;17546;42.674;23.284;2023-07-29T01:06:39;94597.47;;;27.82;32.66
30819;BME280;17546;42.674;23.284;2023-07-29T01:09:14;94600.78;;;27.67;32.59
30819;BME280;17546;42.674;23.284;2023-07-29T01:14:49;94593.34;;;27.62;33.07
30819;BME280;17546;42.674;23.284;2023-07-29T01:17:23;94592.00;;;27.63;33.21
30819;BME280;17546;42.674;23.284;2023-07-29T01:20:02;94596.31;;;27.64;33.09
30819;BME280;17546;42.674;23.284;2023-07-29T01:22:37;94598.78;;;27.58;33.48
30819;BME280;17546;42.674;23.284;2023-07-29T01:25:03;94583.69;;;27.44;33.23
30819;BME280;17546;42.674;23.284;2023-07-29T01:27:29;94598.28;;;27.50;33.60
30819;BME280;17546;42.674;23.284;2023-07-29T01:29:55;94587.63;;;27.38;33.21
30819;BME280;17546;42.674;23.284;2023-07-29T01:32:37;94603.59;;;27.44;33.14
30819;BME280;17546;42.674;23.284;2023-07-29T01:35:18;94561.00;;;27.22;33.42
30819;BME280;17546;42.674;23.284;2023-07-29T01:37:49;94601.22;;;27.40;33.68
30819;BME280;17546;42.674;23.284;2023-07-29T01:40:17;94566.69;;;27.22;33.52
30819;BME280;17546;42.674;23.284;2023-07-29T01:42:43;94570.25;;;27.23;33.92
30819;BME280;17546;42.674;23.284;2023-07-29T01:45:10;94592.28;;;27.34;33.55
30819;BME280;17546;42.674;23.284;2023-07-29T01:47:36;94594.50;;;27.24;34.06
30819;BME280;17546;42.674;23.284;2023-07-29T01:50:03;94559.88;;;26.94;34.25
30819;BME280;17546;42.674;23.284;2023-07-29T01:52:29;94587.56;;;26.93;34.39
30819;BME280;17546;42.674;23.284;2023-07-29T01:54:54;94581.44;;;27.09;33.84
30819;BME280;17546;42.674;23.284;2023-07-29T01:57:20;94595.44;;;27.16;34.14
30819;BME280;17546;42.674;23.284;2023-07-29T01:59:45;94585.03;;;27.09;33.97
30819;BME280;17546;42.674;23.284;2023-07-29T02:02:10;94554.44;;;26.86;33.92
30819;BME280;17546;42.674;23.284;2023-07-29T02:04:37;94594.91;;;27.08;34.59
30819;BME280;17546;42.674;23.284;2023-07-29T02:07:02;94584.28;;;27.09;34.46
30819;BME280;17546;42.674;23.284;2023-07-29T02:09:27;94585.88;;;27.12;33.91
30819;BME280;17546;42.674;23.284;2023-07-29T02:11:53;94597.47;;;26.71;34.90
30819;BME280;17546;42.674;23.284;2023-07-29T02:14:18;94578.34;;;26.40;34.66
30819;BME280;17546;42.674;23.284;2023-07-29T02:16:44;94596.38;;;26.02;35.52
30819;BME280;17546;42.674;23.284;2023-07-29T02:19:09;94598.06;;;26.16;35.53
30819;BME280;17546;42.674;23.284;2023-07-29T02:21:35;94575.41;;;26.07;35.49
30819;BME280;17546;42.674;23.284;2023-07-29T02:24:00;94588.22;;;26.39;35.40
30819;BME280;17546;42.674;23.284;2023-07-29T02:26:25;94594.88;;;26.53;35.28
30819;BME280;17546;42.674;23.284;2023-07-29T02:28:51;94600.84;;;26.57;35.01
30819;BME280;17546;42.674;23.284;2023-07-29T02:31:21;94591.00;;;26.49;35.27
30819;BME280;17546;42.674;23.284;2023-07-29T02:33:47;94605.09;;;26.68;34.97
30819;BME280;17546;42.674;23.284;2023-07-29T02:36:13;94573.56;;;26.43;35.06
30819;BME280;17546;42.674;23.284;2023-07-29T02:38:39;94601.63;;;26.70;35.30
30819;BME280;17546;42.674;23.284;2023-07-29T02:41:05;94586.50;;;26.55;35.48
30819;BME280;17546;42.674;23.284;2023-07-29T02:43:31;94598.28;;;26.62;35.18
30819;BME280;17546;42.674;23.284;2023-07-29T02:45:56;94599.94;;;26.55;35.51
30819;BME280;17546;42.674;23.284;2023-07-29T02:48:22;94566.03;;;26.26;35.84
30819;BME280;17546;42.674;23.284;2023-07-29T02:50:47;94601.44;;;26.56;35.68
30819;BME280;17546;42.674;23.284;2023-07-29T02:53:13;94582.81;;;26.22;36.26
30819;BME280;17546;42.674;23.284;2023-07-29T02:55:41;94608.66;;;26.47;35.77
30819;BME280;17546;42.674;23.284;2023-07-29T02:58:07;94597.28;;;26.47;35.73
30819;BME280;17546;42.674;23.284;2023-07-29T03:00:32;94579.16;;;26.31;35.94
30819;BME280;17546;42.674;23.284;2023-07-29T03:02:58;94605.16;;;26.37;35.94
30819;BME280;17546;42.674;23.284;2023-07-29T03:05:24;94580.84;;;26.24;36.13
30819;BME280;17546;42.674;23.284;2023-07-29T03:07:49;94624.66;;;26.43;36.08
30819;BME280;17546;42.674;23.284;2023-07-29T03:10:15;94582.53;;;26.17;35.84
30819;BME280;17546;42.674;23.284;2023-07-29T03:12:40;94622.22;;;25.96;36.89
30819;BME280;17546;42.674;23.284;2023-07-29T03:15:06;94604.50;;;25.66;36.98
30819;BME280;17546;42.674;23.284;2023-07-29T03:17:32;94579.91;;;25.59;36.92
30819;BME280;17546;42.674;23.284;2023-07-29T03:19:57;94621.66;;;25.78;37.04
30819;BME280;17546;42.674;23.284;2023-07-29T03:22:23;94617.22;;;25.65;37.31
30819;BME280;17546;42.674;23.284;2023-07-29T03:24:48;94625.09;;;25.76;37.36
30819;BME280;17546;42.674;23.284;2023-07-29T03:27:13;94586.66;;;25.54;36.87
30819;BME280;17546;42.674;23.284;2023-07-29T03:29:41;94625.03;;;25.45;37.93
30819;BME280;17546;42.674;23.284;2023-07-29T03:32:06;94621.13;;;25.50;37.77
30819;BME280;17546;42.674;23.284;2023-07-29T03:34:32;94636.88;;;25.83;37.36
30819;BME280;17546;42.674;23.284;2023-07-29T03:36:58;94587.84;;;25.61;37.27
30819;BME280;17546;42.674;23.284;2023-07-29T03:39:23;94637.47;;;25.91;37.09
30819;BME280;17546;42.674;23.284;2023-07-29T03:41:49;94625.19;;;25.98;36.93
30819;BME280;17546;42.674;23.284;2023-07-29T03:44:14;94624.41;;;26.07;36.97
30819;BME280;17546;42.674;23.284;2023-07-29T03:46:40;94629.16;;;26.14;36.85
30819;BME280;17546;42.674;23.284;2023-07-29T03:49:05;94592.06;;;25.81;37.19
30819;BME280;17546;42.674;23.284;2023-07-29T03:51:30;94621.41;;;26.05;37.03
30819;BME280;17546;42.674;23.284;2023-07-29T03:53:56;94629.16;;;26.14;37.11
30819;BME280;17546;42.674;23.284;2023-07-29T03:56:21;94624.81;;;26.13;36.66
30819;BME280;17546;42.674;23.284;2023-07-29T03:58:46;94598.69;;;25.74;37.48
30819;BME280;17546;42.674;23.284;2023-07-29T04:01:14;94610.22;;;26.07;37.34
30819;BME280;17546;42.674;23.284;2023-07-29T04:03:39;94629.22;;;25.95;37.58
30819;BME280;17546;42.674;23.284;2023-07-29T04:06:05;94593.41;;;25.90;37.45
30819;BME280;17546;42.674;23.284;2023-07-29T04:08:31;94626.53;;;25.97;37.18
30819;BME280;17546;42.674;23.284;2023-07-29T04:10:57;94632.81;;;25.86;37.53
30819;BME280;17546;42.674;23.284;2023-07-29T04:13:22;94639.84;;;25.94;37.38
30819;BME280;17546;42.674;23.284;2023-07-29T04:15:48;94624.34;;;25.76;37.55
30819;BME280;17546;42.674;23.284;2023-07-29T04:18:13;94627.19;;;25.66;37.89
30819;BME280;17546;42.674;23.284;2023-07-29T04:20:39;94611.25;;;25.71;37.70
30819;BME280;17546;42.674;23.284;2023-07-29T04:23:04;94616.44;;;25.74;37.50
30819;BME280;17546;42.674;23.284;2023-07-29T04:25:30;94627.16;;;25.86;37.63
30819;BME280;17546;42.674;23.284;2023-07-29T04:27:55;94628.97;;;25.91;37.71
30819;BME280;17546;42.674;23.284;2023-07-29T04:30:22;94624.25;;;26.05;37.08
30819;BME280;17546;42.674;23.284;2023-07-29T04:32:48;94646.31;;;26.16;36.89
30819;BME280;17546;42.674;23.284;2023-07-29T04:35:13;94639.53;;;25.90;37.32
30819;BME280;17546;42.674;23.284;2023-07-29T04:37:40;94643.53;;;26.07;37.20
30819;BME280;17546;42.674;23.284;2023-07-29T04:40:06;94639.13;;;25.74;37.32
30819;BME280;17546;42.674;23.284;2023-07-29T04:42:31;94613.63;;;25.65;37.33
30819;BME280;17546;42.674;23.284;2023-07-29T04:44:57;94651.66;;;25.91;36.92
30819;BME280;17546;42.674;23.284;2023-07-29T04:47:22;94641.28;;;26.05;36.96
30819;BME280;17546;42.674;23.284;2023-07-29T04:49:48;94634.44;;;25.98;36.84
30819;BME280;17546;42.674;23.284;2023-07-29T04:52:14;94645.44;;;26.14;37.08
30819;BME280;17546;42.674;23.284;2023-07-29T04:54:40;94641.44;;;26.07;36.93
30819;BME280;17546;42.674;23.284;2023-07-29T04:57:06;94646.81;;;26.03;37.35
30819;BME280;17546;42.674;23.284;2023-07-29T04:59:31;94649.72;;;26.25;37.06
30819;BME280;17546;42.674;23.284;2023-07-29T05:01:57;94647.25;;;26.09;37.28
30819;BME280;17546;42.674;23.284;2023-07-29T05:04:23;94659.47;;;26.12;37.11
30819;BME280;17546;42.674;23.284;2023-07-29T05:06:48;94651.72;;;26.12;37.04
30819;BME280;17546;42.674;23.284;2023-07-29T05:09:18;94625.97;;;25.89;37.35
30819;BME280;17546;42.674;23.284;2023-07-29T05:11:44;94659.59;;;26.24;37.02
30819;BME280;17546;42.674;23.284;2023-07-29T05:14:11;94636.03;;;26.11;36.78
30819;BME280;17546;42.674;23.284;2023-07-29T05:16:36;94657.03;;;26.28;36.98
30819;BME280;17546;42.674;23.284;2023-07-29T05:19:02;94639.59;;;26.22;36.71
30819;BME280;17546;42.674;23.284;2023-07-29T05:21:27;94666.09;;;26.36;36.60
30819;BME280;17546;42.674;23.284;2023-07-29T05:23:53;94672.75;;;26.50;36.88
30819;BME280;17546;42.674;23.284;2023-07-29T05:26:18;94662.75;;;26.49;37.18
30819;BME280;17546;42.674;23.284;2023-07-29T05:28:43;94674.38;;;26.53;36.95
30819;BME280;17546;42.674;23.284;2023-07-29T05:31:09;94655.75;;;26.41;36.86
30819;BME280;17546;42.674;23.284;2023-07-29T05:33:34;94671.47;;;26.42;37.12
30819;BME280;17546;42.674;23.284;2023-07-29T05:36:01;94669.00;;;26.48;36.90
30819;BME280;17546;42.674;23.284;2023-07-29T05:38:27;94648.47;;;26.37;36.89
30819;BME280;17546;42.674;23.284;2023-07-29T05:40:52;94668.28;;;26.57;36.51
30819;BME280;17546;42.674;23.284;2023-07-29T05:43:18;94674.91;;;26.71;36.27
30819;BME280;17546;42.674;23.284;2023-07-29T05:45:43;94668.34;;;26.69;36.40
30819;BME280;17546;42.674;23.284;2023-07-29T05:48:08;94665.19;;;26.74;36.32
30819;BME280;17546;42.674;23.284;2023-07-29T05:50:34;94679.59;;;26.88;36.17
30819;BME280;17546;42.674;23.284;2023-07-29T05:52:59;94673.69;;;26.96;36.03
30819;BME280;17546;42.674;23.284;2023-07-29T05:55:25;94644.66;;;26.76;36.26
30819;BME280;17546;42.674;23.284;2023-07-29T05:57:50;94655.91;;;26.95;36.25
30819;BME280;17546;42.674;23.284;2023-07-29T06:00:16;94620.88;;;26.81;35.65
30819;BME280;17546;42.674;23.284;2023-07-29T06:02:41;94645.06;;;26.82;36.45
30819;BME280;17546;42.674;23.284;2023-07-29T06:05:07;94662.31;;;26.96;36.05
30819;BME280;17546;42.674;23.284;2023-07-29T06:07:32;94632.19;;;27.03;35.75
30819;BME280;17546;42.674;23.284;2023-07-29T06:09:59;94669.47;;;27.40;35.85
30819;BME280;17546;42.674;23.284;2023-07-29T06:12:25;94671.00;;;27.53;35.72
30819;BME280;17546;42.674;23.284;2023-07-29T06:14:50;94668.56;;;27.59;35.45
30819;BME280;17546;42.674;23.284;2023-07-29T06:17:16;94670.56;;;27.68;35.34
30819;BME280;17546;42.674;23.284;2023-07-29T06:19:41;94643.13;;;27.18;35.34
30819;BME280;17546;42.674;23.284;2023-07-29T06:22:06;94669.75;;;27.56;35.00
30819;BME280;17546;42.674;23.284;2023-07-29T06:24:32;94667.59;;;27.78;34.77
30819;BME280;17546;42.674;23.284;2023-07-29T06:26:58;94636.41;;;27.68;33.96
30819;BME280;17546;42.674;23.284;2023-07-29T06:29:23;94621.19;;;27.64;34.80
30819;BME280;17546;42.674;23.284;2023-07-29T06:31:49;94660.63;;;28.02;34.46
30819;BME280;17546;42.674;23.284;2023-07-29T06:34:16;94655.56;;;28.13;34.15
30819;BME280;17546;42.674;23.284;2023-07-29T06:36:42;94656.28;;;28.01;34.63
30819;BME280;17546;42.674;23.284;2023-07-29T06:39:07;94629.81;;;27.99;34.59
30819;BME280;17546;42.674;23.284;2023-07-29T06:41:33;94650.25;;;28.19;34.93
30819;BME280;17546;42.674;23.284;2023-07-29T06:43:58;94637.25;;;28.28;33.96
30819;BME280;17546;42.674;23.284;2023-07-29T06:46:23;94637.44;;;28.79;33.80
30819;BME280;17546;42.674;23.284;2023-07-29T06:48:49;94645.88;;;28.77;33.56
30819;BME280;17546;42.674;23.284;2023-07-29T06:51:16;94639.28;;;29.35;33.26
30819;BME280;17546;42.674;23.284;2023-07-29T06:53:41;94640.34;;;29.67;32.86
30819;BME280;17546;42.674;23.284;2023-07-29T06:56:07;94655.59;;;29.98;32.08
30819;BME280;17546;42.674;23.284;2023-07-29T06:58:42;94661.72;;;30.45;31.63
30819;BME280;17546;42.674;23.284;2023-07-29T07:01:08;94644.47;;;30.30;31.09
30819;BME280;17546;42.674;23.284;2023-07-29T07:03:33;94655.47;;;30.49;30.77
30819;BME280;17546;42.674;23.284;2023-07-29T07:05:59;94651.22;;;30.78;30.68
30819;BME280;17546;42.674;23.284;2023-07-29T07:08:24;94617.06;;;30.66;29.88
30819;BME280;17546;42.674;23.284;2023-07-29T07:10:50;94568.88;;;30.74;29.07
30819;BME280;17546;42.674;23.284;2023-07-29T07:13:16;94590.28;;;30.87;29.09
30819;BME280;17546;42.674;23.284;2023-07-29T07:15:47;94601.09;;;30.61;29.08
30819;BME280;17546;42.674;23.284;2023-07-29T07:18:15;94630.69;;;30.95;28.90
30819;BME280;17546;42.674;23.284;2023-07-29T07:20:41;94562.72;;;30.80;29.19
30819;BME280;17546;42.674;23.284;2023-07-29T07:23:07;94563.84;;;31.62;28.14
30819;BME280;17546;42.674;23.284;2023-07-29T07:25:39;94585.78;;;32.03;28.23
30819;BME280;17546;42.674;23.284;2023-07-29T07:28:04;94597.25;;;32.03;27.45
30819;BME280;17546;42.674;23.284;2023-07-29T07:30:29;94653.50;;;32.76;27.40
30819;BME280;17546;42.674;23.284;2023-07-29T07:32:55;94649.78;;;32.89;27.61
30819;BME280;17546;42.674;23.284;2023-07-29T07:35:20;94642.91;;;32.96;27.23
30819;BME280;17546;42.674;23.284;2023-07-29T07:37:46;94642.66;;;32.90;27.32
30819;BME280;17546;42.674;23.284;2023-07-29T07:40:11;94641.50;;;33.13;27.09
30819;BME280;17546;42.674;23.284;2023-07-29T07:42:37;94610.69;;;33.13;26.37
30819;BME280;17546;42.674;23.284;2023-07-29T07:45:02;94609.47;;;33.54;25.75
30819;BME280;17546;42.674;23.284;2023-07-29T07:47:28;94641.25;;;33.59;25.60
30819;BME280;17546;42.674;23.284;2023-07-29T07:49:56;94641.56;;;33.67;25.87
30819;BME280;17546;42.674;23.284;2023-07-29T07:52:22;94638.34;;;33.94;25.86
30819;BME280;17546;42.674;23.284;2023-07-29T07:54:54;94651.44;;;34.00;25.46
30819;BME280;17546;42.674;23.284;2023-07-29T07:57:21;94643.09;;;33.34;26.00
30819;BME280;17546;42.674;23.284;2023-07-29T07:59:46;94643.91;;;33.90;25.34
30819;BME280;17546;42.674;23.284;2023-07-29T08:02:11;94640.78;;;34.20;25.39
30819;BME280;17546;42.674;23.284;2023-07-29T08:04:37;94620.88;;;34.26;25.44
30819;BME280;17546;42.674;23.284;2023-07-29T08:07:02;94620.66;;;34.20;25.29
30819;BME280;17546;42.674;23.284;2023-07-29T08:09:28;94631.94;;;34.54;25.15
30819;BME280;17546;42.674;23.284;2023-07-29T08:11:53;94636.38;;;34.97;25.18
30819;BME280;17546;42.674;23.284;2023-07-29T08:14:19;94651.00;;;34.63;24.41
30819;BME280;17546;42.674;23.284;2023-07-29T08:16:44;94625.34;;;34.69;24.51
30819;BME280;17546;42.674;23.284;2023-07-29T08:19:09;94625.72;;;35.22;24.41
30819;BME280;17546;42.674;23.284;2023-07-29T08:24:55;94590.75;;;35.53;23.59
30819;BME280;17546;42.674;23.284;2023-07-29T08:27:20;94617.03;;;35.42;23.44
30819;BME280;17546;42.674;23.284;2023-07-29T08:29:45;94656.44;;;34.95;23.48
30819;BME280;17546;42.674;23.284;2023-07-29T08:32:11;94650.31;;;35.69;22.91
30819;BME280;17546;42.674;23.284;2023-07-29T08:34:36;94624.19;;;36.09;23.78
30819;BME280;17546;42.674;23.284;2023-07-29T08:37:02;94627.97;;;35.91;23.29
30819;BME280;17546;42.674;23.284;2023-07-29T08:39:27;94640.25;;;36.16;22.73
30819;BME280;17546;42.674;23.284;2023-07-29T08:42:11;94586.53;;;36.27;23.60
30819;BME280;17546;42.674;23.284;2023-07-29T08:44:41;94630.81;;;36.88;23.46
30819;BME280;17546;42.674;23.284;2023-07-29T08:47:07;94631.28;;;37.06;23.14
30819;BME280;17546;42.674;23.284;2023-07-29T08:49:33;94621.88;;;36.77;21.97
30819;BME280;17546;42.674;23.284;2023-07-29T08:52:11;94630.25;;;35.95;22.52
30819;BME280;17546;42.674;23.284;2023-07-29T08:54:40;94584.03;;;36.15;21.98
30819;BME280;17546;42.674;23.284;2023-07-29T08:57:11;94626.41;;;36.34;21.56
30819;BME280;17546;42.674;23.284;2023-07-29T08:59:37;94620.75;;;36.63;21.76
30819;BME280;17546;42.674;23.284;2023-07-29T09:02:03;94624.72;;;37.03;22.40
30819;BME280;17546;42.674;23.284;2023-07-29T09:04:28;94618.38;;;36.81;20.50
30819;BME280;17546;42.674;23.284;2023-07-29T09:06:55;94584.59;;;36.86;20.71
30819;BME280;17546;42.674;23.284;2023-07-29T09:09:21;94606.00;;;37.33;20.27
30819;BME280;17546;42.674;23.284;2023-07-29T09:11:48;94615.81;;;37.50;19.89
30819;BME280;17546;42.674;23.284;2023-07-29T09:14:14;94598.00;;;37.29;19.79
30819;BME280;17546;42.674;23.284;2023-07-29T09:16:39;94609.09;;;37.41;20.59
30819;BME280;17546;42.674;23.284;2023-07-29T09:19:05;94589.88;;;37.52;20.41
30819;BME280;17546;42.674;23.284;2023-07-29T09:21:31;94591.19;;;37.75;20.63
30819;BME280;17546;42.674;23.284;2023-07-29T09:23:57;94600.53;;;37.73;20.45
30819;BME280;17546;42.674;23.284;2023-07-29T09:26:28;94597.16;;;37.55;20.39
30819;BME280;17546;42.674;23.284;2023-07-29T09:28:57;94601.59;;;37.88;20.40
30819;BME280;17546;42.674;23.284;2023-07-29T09:31:24;94569.69;;;37.23;19.96
30819;BME280;17546;42.674;23.284;2023-07-29T09:33:55;94556.84;;;37.29;18.85
30819;BME280;17546;42.674;23.284;2023-07-29T09:36:22;94599.91;;;37.49;19.65
30819;BME280;17546;42.674;23.284;2023-07-29T09:38:47;94571.41;;;37.35;19.74
30819;BME280;17546;42.674;23.284;2023-07-29T09:41:13;94551.13;;;37.31;19.39
30819;BME280;17546;42.674;23.284;2023-07-29T09:43:40;94578.38;;;37.54;19.98
30819;BME280;17546;42.674;23.284;2023-07-29T09:46:06;94579.44;;;37.38;20.18
30819;BME280;17546;42.674;23.284;2023-07-29T09:48:38;94582.41;;;37.71;19.97
30819;BME280;17546;42.674;23.284;2023-07-29T09:51:13;94553.50;;;37.40;19.71
30819;BME280;17546;42.674;23.284;2023-07-29T09:53:43;94551.50;;;37.47;19.85
30819;BME280;17546;42.674;23.284;2023-07-29T09:56:10;94552.22;;;37.17;19.21
30819;BME280;17546;42.674;23.284;2023-07-29T09:58:35;94553.75;;;36.40;19.50
30819;BME280;17546;42.674;23.284;2023-07-29T10:01:03;94565.47;;;36.72;18.86
30819;BME280;17546;42.674;23.284;2023-07-29T10:03:30;94566.63;;;37.15;19.34
30819;BME280;17546;42.674;23.284;2023-07-29T10:06:02;94539.66;;;37.35;19.41
30819;BME280;17546;42.674;23.284;2023-07-29T10:08:30;94545.38;;;37.33;19.20
30819;BME280;17546;42.674;23.284;2023-07-29T10:11:05;94559.41;;;37.16;19.08
30819;BME280;17546;42.674;23.284;2023-07-29T10:13:33;94563.53;;;37.68;19.24
30819;BME280;17546;42.674;23.284;2023-07-29T10:15:59;94542.34;;;37.89;19.32
30819;BME280;17546;42.674;23.284;2023-07-29T10:18:29;94548.47;;;37.41;18.63
30819;BME280;17546;42.674;23.284;2023-07-29T10:20:57;94548.94;;;37.94;17.95
30819;BME280;17546;42.674;23.284;2023-07-29T10:23:25;94526.63;;;37.34;18.46
30819;BME280;17546;42.674;23.284;2023-07-29T10:25:57;94540.00;;;37.49;18.43
30819;BME280;17546;42.674;23.284;2023-07-29T10:28:25;94514.81;;;37.84;18.24
30819;BME280;17546;42.674;23.284;2023-07-29T10:30:54;94512.53;;;37.80;17.68
30819;BME280;17546;42.674;23.284;2023-07-29T10:33:21;94496.03;;;37.53;17.59
30819;BME280;17546;42.674;23.284;2023-07-29T10:35:47;94523.47;;;37.84;18.50
30819;BME280;17546;42.674;23.284;2023-07-29T10:38:12;94533.22;;;38.35;18.98
30819;BME280;17546;42.674;23.284;2023-07-29T10:40:50;94518.88;;;38.41;18.08
30819;BME280;17546;42.674;23.284;2023-07-29T10:43:25;94516.75;;;38.08;17.45
30819;BME280;17546;42.674;23.284;2023-07-29T10:45:56;94531.56;;;38.24;16.31
30819;BME280;17546;42.674;23.284;2023-07-29T10:53:56;94505.28;;;38.48;16.89
30819;BME280;17546;42.674;23.284;2023-07-29T10:56:33;94512.41;;;38.81;17.84
30819;BME280;17546;42.674;23.284;2023-07-29T10:59:31;94481.88;;;38.72;17.36
30819;BME280;17546;42.674;23.284;2023-07-29T11:01:57;94487.75;;;38.78;17.35
30819;BME280;17546;42.674;23.284;2023-07-29T11:09:40;94501.63;;;38.86;17.18
30819;BME280;17546;42.674;23.284;2023-07-29T11:12:40;94502.72;;;38.67;17.11
30819;BME280;17546;42.674;23.284;2023-07-29T11:17:39;94488.25;;;38.67;16.73
30819;BME280;17546;42.674;23.284;2023-07-29T11:20:06;94485.16;;;38.54;16.48
30819;BME280;17546;42.674;23.284;2023-07-29T11:22:35;94489.00;;;38.67;16.36
30819;BME280;17546;42.674;23.284;2023-07-29T11:25:01;94492.75;;;38.76;16.43
30819;BME280;17546;42.674;23.284;2023-07-29T11:27:27;94496.94;;;38.67;16.12
30819;BME280;17546;42.674;23.284;2023-07-29T11:29:59;94467.91;;;38.22;16.14
30819;BME280;17546;42.674;23.284;2023-07-29T11:32:25;94490.53;;;38.34;16.23
30819;BME280;17546;42.674;23.284;2023-07-29T11:34:51;94458.28;;;37.77;15.79
30819;BME280;17546;42.674;23.284;2023-07-29T11:37:17;94478.91;;;38.32;15.71
30819;BME280;17546;42.674;23.284;2023-07-29T11:39:43;94473.69;;;38.22;16.12
30819;BME280;17546;42.674;23.284;2023-07-29T11:42:17;94475.34;;;38.33;16.76
30819;BME280;17546;42.674;23.284;2023-07-29T11:44:42;94477.22;;;38.55;16.81
30819;BME280;17546;42.674;23.284;2023-07-29T11:47:09;94472.84;;;38.54;16.80
30819;BME280;17546;42.674;23.284;2023-07-29T11:49:35;94466.00;;;38.75;16.43
30819;BME280;17546;42.674;23.284;2023-07-29T11:52:02;94466.72;;;38.76;16.65
30819;BME280;17546;42.674;23.284;2023-07-29T11:54:28;94462.06;;;38.58;16.63
30819;BME280;17546;42.674;23.284;2023-07-29T11:56:55;94444.09;;;38.64;16.75
30819;BME280;17546;42.674;23.284;2023-07-29T11:59:20;94463.47;;;38.55;16.34
30819;BME280;17546;42.674;23.284;2023-07-29T12:01:46;94456.88;;;38.51;16.74
30819;BME280;17546;42.674;23.284;2023-07-29T12:04:12;94452.63;;;38.56;16.82
30819;BME280;17546;42.674;23.284;2023-07-29T12:06:38;94448.41;;;38.63;16.90
30819;BME280;17546;42.674;23.284;2023-07-29T12:09:04;94444.78;;;38.62;16.07
30819;BME280;17546;42.674;23.284;2023-07-29T12:11:30;94450.50;;;38.99;16.61
30819;BME280;17546;42.674;23.284;2023-07-29T12:13:56;94451.63;;;38.81;15.94
30819;BME280;17546;42.674;23.284;2023-07-29T12:16:21;94430.22;;;38.56;15.91
30819;BME280;17546;42.674;23.284;2023-07-29T12:18:50;94397.25;;;37.58;16.24
30819;BME280;17546;42.674;23.284;2023-07-29T12:21:15;94448.22;;;38.51;16.01
30819;BME280;17546;42.674;23.284;2023-07-29T12:23:42;94440.41;;;38.21;16.31
30819;BME280;17546;42.674;23.284;2023-07-29T12:26:08;94439.28;;;38.38;15.84
30819;BME280;17546;42.674;23.284;2023-07-29T12:28:33;94416.75;;;37.94;15.89
30819;BME280;17546;42.674;23.284;2023-07-29T12:30:59;94448.00;;;38.40;16.80
30819;BME280;17546;42.674;23.284;2023-07-29T12:33:31;94429.06;;;38.33;16.24
30819;BME280;17546;42.674;23.284;2023-07-29T12:35:57;94432.31;;;38.13;16.17
30819;BME280;17546;42.674;23.284;2023-07-29T12:38:26;94434.13;;;38.73;16.37
30819;BME280;17546;42.674;23.284;2023-07-29T12:40:51;94386.28;;;38.26;16.72
30819;BME280;17546;42.674;23.284;2023-07-29T12:43:17;94409.72;;;38.84;16.50
30819;BME280;17546;42.674;23.284;2023-07-29T12:45:42;94436.00;;;38.97;16.13
30819;BME280;17546;42.674;23.284;2023-07-29T12:48:09;94432.94;;;38.89;16.17
30819;BME280;17546;42.674;23.284;2023-07-29T12:50:35;94402.81;;;38.59;15.91
30819;BME280;17546;42.674;23.284;2023-07-29T12:53:00;94402.28;;;38.73;16.07
30819;BME280;17546;42.674;23.284;2023-07-29T12:55:25;94424.00;;;37.95;16.54
30819;BME280;17546;42.674;23.284;2023-07-29T12:57:51;94423.75;;;38.58;15.86
30819;BME280;17546;42.674;23.284;2023-07-29T13:00:17;94413.47;;;38.49;16.05
30819;BME280;17546;42.674;23.284;2023-07-29T13:02:42;94401.28;;;38.16;16.83
30819;BME280;17546;42.674;23.284;2023-07-29T13:05:11;94415.75;;;37.47;16.72
30819;BME280;17546;42.674;23.284;2023-07-29T13:07:40;94401.31;;;37.47;16.56